sensor_id;sensor_type;location;lat;lon;timestamp;temperature;humidity
33903;DHT22;20194;50.950;5.346;2023-08-21T00:01:10;22.90;46.00
33903;DHT22;20194;50.950;5.346;2023-08-21T00:03:35;23.10;45.20
33903;DHT22;20194;50.950;5.346;2023-08-21T00:06:01;23.10;44.10
33903;DHT22;20194;50.950;5.346;2023-08-21T00:08:27;23.10;44.90
33903;DHT22;20194;50.950;5.346;2023-08-21T00:10:53;23.20;44.50
33903;DHT22;20194;50.950;5.346;2023-08-21T00:13:18;23.20;43.60
33903;DHT22;20194;50.950;5.346;2023-08-21T00:15:44;23.10;44.40
33903;DHT22;20194;50.950;5.346;2023-08-21T00:18:10;23.20;43.20
33903;DHT22;20194;50.950;5.346;2023-08-21T00:20:36;23.20;42.90
33903;DHT22;20194;50.950;5.346;2023-08-21T00:23:02;22.90;46.40
33903;DHT22;20194;50.950;5.346;2023-08-21T00:25:28;23.00;45.60
33903;DHT22;20194;50.950;5.346;2023-08-21T00:27:53;23.00;45.10
33903;DHT22;20194;50.950;5.346;2023-08-21T00:30:19;23.10;44.40
33903;DHT22;20194;50.950;5.346;2023-08-21T00:32:45;23.10;44.50
33903;DHT22;20194;50.950;5.346;2023-08-21T00:35:10;23.20;42.90
33903;DHT22;20194;50.950;5.346;2023-08-21T00:37:36;23.40;43.20
33903;DHT22;20194;50.950;5.346;2023-08-21T00:40:02;23.10;42.80
33903;DHT22;20194;50.950;5.346;2023-08-21T00:42:28;23.10;44.00
33903;DHT22;20194;50.950;5.346;2023-08-21T00:44:54;23.20;42.00
33903;DHT22;20194;50.950;5.346;2023-08-21T00:47:20;23.20;41.70
33903;DHT22;20194;50.950;5.346;2023-08-21T00:49:46;23.20;41.20
33903;DHT22;20194;50.950;5.346;2023-08-21T00:52:12;23.10;43.80
33903;DHT22;20194;50.950;5.346;2023-08-21T00:54:39;23.00;44.40
33903;DHT22;20194;50.950;5.346;2023-08-21T00:57:05;22.70;45.60
33903;DHT22;20194;50.950;5.346;2023-08-21T00:59:31;22.70;46.80
33903;DHT22;20194;50.950;5.346;2023-08-21T01:01:57;22.70;48.00
33903;DHT22;20194;50.950;5.346;2023-08-21T01:04:23;22.80;46.50
33903;DHT22;20194;50.950;5.346;2023-08-21T01:06:49;22.60;47.00
33903;DHT22;20194;50.950;5.346;2023-08-21T01:09:29;22.60;47.60
33903;DHT22;20194;50.950;5.346;2023-08-21T01:14:47;22.70;46.50
33903;DHT22;20194;50.950;5.346;2023-08-21T01:17:16;22.60;46.80
33903;DHT22;20194;50.950;5.346;2023-08-21T01:19:44;22.40;49.70
33903;DHT22;20194;50.950;5.346;2023-08-21T01:22:12;22.30;50.70
33903;DHT22;20194;50.950;5.346;2023-08-21T01:24:37;22.40;48.90
33903;DHT22;20194;50.950;5.346;2023-08-21T01:27:03;22.50;48.50
33903;DHT22;20194;50.950;5.346;2023-08-21T01:29:29;22.50;46.30
33903;DHT22;20194;50.950;5.346;2023-08-21T01:32:18;22.50;48.00
33903;DHT22;20194;50.950;5.346;2023-08-21T01:34:46;22.40;47.60
33903;DHT22;20194;50.950;5.346;2023-08-21T01:37:13;22.20;49.60
33903;DHT22;20194;50.950;5.346;2023-08-21T01:39:39;22.30;49.30
33903;DHT22;20194;50.950;5.346;2023-08-21T01:42:05;22.30;49.80
33903;DHT22;20194;50.950;5.346;2023-08-21T01:44:31;22.20;49.70
33903;DHT22;20194;50.950;5.346;2023-08-21T01:46:56;22.30;48.80
33903;DHT22;20194;50.950;5.346;2023-08-21T01:49:22;22.40;47.70
33903;DHT22;20194;50.950;5.346;2023-08-21T01:51:47;22.40;47.60
33903;DHT22;20194;50.950;5.346;2023-08-21T01:54:13;22.30;47.80
33903;DHT22;20194;50.950;5.346;2023-08-21T01:56:39;22.40;48.50
33903;DHT22;20194;50.950;5.346;2023-08-21T01:59:05;22.40;47.50
33903;DHT22;20194;50.950;5.346;2023-08-21T02:01:31;22.40;47.60
33903;DHT22;20194;50.950;5.346;2023-08-21T02:03:57;22.40;48.00
33903;DHT22;20194;50.950;5.346;2023-08-21T02:06:23;22.50;47.90
33903;DHT22;20194;50.950;5.346;2023-08-21T02:08:49;22.20;50.00
33903;DHT22;20194;50.950;5.346;2023-08-21T02:11:15;21.80;53.40
33903;DHT22;20194;50.950;5.346;2023-08-21T02:13:41;21.60;55.30
33903;DHT22;20194;50.950;5.346;2023-08-21T02:16:06;21.80;54.80
33903;DHT22;20194;50.950;5.346;2023-08-21T02:18:32;22.00;53.20
33903;DHT22;20194;50.950;5.346;2023-08-21T02:21:00;22.10;52.40
33903;DHT22;20194;50.950;5.346;2023-08-21T02:23:27;22.20;51.10
33903;DHT22;20194;50.950;5.346;2023-08-21T02:25:53;22.20;50.30
33903;DHT22;20194;50.950;5.346;2023-08-21T02:28:19;22.20;51.00
33903;DHT22;20194;50.950;5.346;2023-08-21T02:30:45;22.20;50.80
33903;DHT22;20194;50.950;5.346;2023-08-21T02:33:10;22.10;51.30
33903;DHT22;20194;50.950;5.346;2023-08-21T02:35:36;22.00;52.70
33903;DHT22;20194;50.950;5.346;2023-08-21T02:38:02;21.70;55.00
33903;DHT22;20194;50.950;5.346;2023-08-21T02:40:28;21.50;57.10
33903;DHT22;20194;50.950;5.346;2023-08-21T02:42:54;21.10;61.90
33903;DHT22;20194;50.950;5.346;2023-08-21T02:45:20;21.20;60.70
33903;DHT22;20194;50.950;5.346;2023-08-21T02:47:46;21.30;59.60
33903;DHT22;20194;50.950;5.346;2023-08-21T02:50:12;21.50;59.20
33903;DHT22;20194;50.950;5.346;2023-08-21T02:52:38;21.70;57.70
33903;DHT22;20194;50.950;5.346;2023-08-21T02:55:04;21.80;57.00
33903;DHT22;20194;50.950;5.346;2023-08-21T02:57:30;21.80;57.30
33903;DHT22;20194;50.950;5.346;2023-08-21T02:59:56;22.00;56.20
33903;DHT22;20194;50.950;5.346;2023-08-21T03:02:22;22.00;55.10
33903;DHT22;20194;50.950;5.346;2023-08-21T03:04:48;22.00;56.20
33903;DHT22;20194;50.950;5.346;2023-08-21T03:07:15;21.80;57.30
33903;DHT22;20194;50.950;5.346;2023-08-21T03:09:41;21.60;59.40
33903;DHT22;20194;50.950;5.346;2023-08-21T03:12:07;21.70;59.10
33903;DHT22;20194;50.950;5.346;2023-08-21T03:14:33;21.80;57.60
33903;DHT22;20194;50.950;5.346;2023-08-21T03:16:59;21.70;57.10
33903;DHT22;20194;50.950;5.346;2023-08-21T03:19:25;21.70;58.10
33903;DHT22;20194;50.950;5.346;2023-08-21T03:21:51;21.70;57.70
33903;DHT22;20194;50.950;5.346;2023-08-21T03:24:18;21.80;56.90
33903;DHT22;20194;50.950;5.346;2023-08-21T03:26:44;21.80;56.60
33903;DHT22;20194;50.950;5.346;2023-08-21T03:29:10;21.70;57.00
33903;DHT22;20194;50.950;5.346;2023-08-21T03:31:36;21.70;56.60
33903;DHT22;20194;50.950;5.346;2023-08-21T03:34:01;21.70;57.40
33903;DHT22;20194;50.950;5.346;2023-08-21T03:36:27;21.60;57.40
33903;DHT22;20194;50.950;5.346;2023-08-21T03:39:00;21.50;58.80
33903;DHT22;20194;50.950;5.346;2023-08-21T03:41:27;21.40;58.50
33903;DHT22;20194;50.950;5.346;2023-08-21T03:43:53;21.50;58.20
33903;DHT22;20194;50.950;5.346;2023-08-21T03:46:18;21.50;58.60
33903;DHT22;20194;50.950;5.346;2023-08-21T03:48:44;21.50;59.20
33903;DHT22;20194;50.950;5.346;2023-08-21T03:51:10;21.50;59.10
33903;DHT22;20194;50.950;5.346;2023-08-21T03:53:36;21.40;59.40
33903;DHT22;20194;50.950;5.346;2023-08-21T03:56:01;21.30;59.60
33903;DHT22;20194;50.950;5.346;2023-08-21T03:58:27;21.30;60.80
33903;DHT22;20194;50.950;5.346;2023-08-21T04:00:53;21.20;62.10
33903;DHT22;20194;50.950;5.346;2023-08-21T04:03:19;21.30;61.10
33903;DHT22;20194;50.950;5.346;2023-08-21T04:05:45;21.40;58.90
33903;DHT22;20194;50.950;5.346;2023-08-21T04:08:12;21.50;57.80
33903;DHT22;20194;50.950;5.346;2023-08-21T04:10:38;21.50;58.10
33903;DHT22;20194;50.950;5.346;2023-08-21T04:13:07;21.50;58.80
33903;DHT22;20194;50.950;5.346;2023-08-21T04:15:33;21.30;61.40
33903;DHT22;20194;50.950;5.346;2023-08-21T04:18:00;21.30;62.10
33903;DHT22;20194;50.950;5.346;2023-08-21T04:20:26;21.20;62.30
33903;DHT22;20194;50.950;5.346;2023-08-21T04:22:52;21.30;62.50
33903;DHT22;20194;50.950;5.346;2023-08-21T04:25:18;21.40;61.30
33903;DHT22;20194;50.950;5.346;2023-08-21T04:27:44;21.40;60.70
33903;DHT22;20194;50.950;5.346;2023-08-21T04:30:10;21.30;60.80
33903;DHT22;20194;50.950;5.346;2023-08-21T04:32:36;21.20;62.80
33903;DHT22;20194;50.950;5.346;2023-08-21T04:35:01;21.10;64.40
33903;DHT22;20194;50.950;5.346;2023-08-21T04:37:27;21.00;65.70
33903;DHT22;20194;50.950;5.346;2023-08-21T04:39:54;21.00;65.80
33903;DHT22;20194;50.950;5.346;2023-08-21T04:42:20;21.00;65.30
33903;DHT22;20194;50.950;5.346;2023-08-21T04:44:46;20.90;65.90
33903;DHT22;20194;50.950;5.346;2023-08-21T04:47:23;20.90;65.20
33903;DHT22;20194;50.950;5.346;2023-08-21T04:49:50;21.00;64.60
33903;DHT22;20194;50.950;5.346;2023-08-21T04:52:16;21.00;65.60
33903;DHT22;20194;50.950;5.346;2023-08-21T04:54:42;21.10;65.10
33903;DHT22;20194;50.950;5.346;2023-08-21T04:57:08;21.10;64.50
33903;DHT22;20194;50.950;5.346;2023-08-21T04:59:35;20.90;66.80
33903;DHT22;20194;50.950;5.346;2023-08-21T05:02:01;20.90;67.60
33903;DHT22;20194;50.950;5.346;2023-08-21T05:04:26;20.80;68.20
33903;DHT22;20194;50.950;5.346;2023-08-21T05:06:52;20.80;67.60
33903;DHT22;20194;50.950;5.346;2023-08-21T05:09:18;20.90;67.90
33903;DHT22;20194;50.950;5.346;2023-08-21T05:11:43;20.90;66.80
33903;DHT22;20194;50.950;5.346;2023-08-21T05:14:09;20.90;67.00
33903;DHT22;20194;50.950;5.346;2023-08-21T05:16:35;20.90;67.10
33903;DHT22;20194;50.950;5.346;2023-08-21T05:19:00;20.90;67.10
33903;DHT22;20194;50.950;5.346;2023-08-21T05:21:27;20.80;68.40
33903;DHT22;20194;50.950;5.346;2023-08-21T05:23:53;20.70;69.70
33903;DHT22;20194;50.950;5.346;2023-08-21T05:26:19;20.70;69.50
33903;DHT22;20194;50.950;5.346;2023-08-21T05:28:46;20.70;69.60
33903;DHT22;20194;50.950;5.346;2023-08-21T05:31:11;20.70;70.00
33903;DHT22;20194;50.950;5.346;2023-08-21T05:33:37;20.80;69.50
33903;DHT22;20194;50.950;5.346;2023-08-21T05:36:04;20.70;69.90
33903;DHT22;20194;50.950;5.346;2023-08-21T05:38:30;20.70;70.60
33903;DHT22;20194;50.950;5.346;2023-08-21T05:40:56;20.80;71.00
33903;DHT22;20194;50.950;5.346;2023-08-21T05:43:21;20.80;69.50
33903;DHT22;20194;50.950;5.346;2023-08-21T05:45:47;20.80;69.60
33903;DHT22;20194;50.950;5.346;2023-08-21T05:48:13;20.80;69.80
33903;DHT22;20194;50.950;5.346;2023-08-21T05:50:39;20.80;69.80
33903;DHT22;20194;50.950;5.346;2023-08-21T05:53:05;21.00;68.60
33903;DHT22;20194;50.950;5.346;2023-08-21T05:55:31;21.00;68.80
33903;DHT22;20194;50.950;5.346;2023-08-21T05:57:56;21.10;67.80
33903;DHT22;20194;50.950;5.346;2023-08-21T06:00:22;21.20;67.90
33903;DHT22;20194;50.950;5.346;2023-08-21T06:02:48;21.10;68.60
33903;DHT22;20194;50.950;5.346;2023-08-21T06:05:14;21.10;68.60
33903;DHT22;20194;50.950;5.346;2023-08-21T06:07:40;21.10;67.90
33903;DHT22;20194;50.950;5.346;2023-08-21T06:10:09;21.20;68.00
33903;DHT22;20194;50.950;5.346;2023-08-21T06:12:41;21.20;68.00
33903;DHT22;20194;50.950;5.346;2023-08-21T06:15:08;21.30;67.60
33903;DHT22;20194;50.950;5.346;2023-08-21T06:17:37;21.20;68.70
33903;DHT22;20194;50.950;5.346;2023-08-21T06:20:04;21.20;68.90
33903;DHT22;20194;50.950;5.346;2023-08-21T06:22:38;21.20;69.40
33903;DHT22;20194;50.950;5.346;2023-08-21T06:25:04;21.30;68.90
33903;DHT22;20194;50.950;5.346;2023-08-21T06:27:30;21.30;67.30
33903;DHT22;20194;50.950;5.346;2023-08-21T06:29:56;21.30;68.70
33903;DHT22;20194;50.950;5.346;2023-08-21T06:32:22;21.30;69.90
33903;DHT22;20194;50.950;5.346;2023-08-21T06:34:48;21.50;68.90
33903;DHT22;20194;50.950;5.346;2023-08-21T06:37:14;21.60;66.60
33903;DHT22;20194;50.950;5.346;2023-08-21T06:39:39;21.80;64.70
33903;DHT22;20194;50.950;5.346;2023-08-21T06:42:06;22.10;63.70
33903;DHT22;20194;50.950;5.346;2023-08-21T06:44:32;22.20;62.60
33903;DHT22;20194;50.950;5.346;2023-08-21T06:46:58;22.50;59.20
33903;DHT22;20194;50.950;5.346;2023-08-21T06:49:24;22.80;57.10
33903;DHT22;20194;50.950;5.346;2023-08-21T06:51:50;23.00;56.30
33903;DHT22;20194;50.950;5.346;2023-08-21T06:54:16;23.30;52.50
33903;DHT22;20194;50.950;5.346;2023-08-21T06:56:44;23.50;50.00
33903;DHT22;20194;50.950;5.346;2023-08-21T06:59:10;23.70;47.90
33903;DHT22;20194;50.950;5.346;2023-08-21T07:01:36;23.70;44.60
33903;DHT22;20194;50.950;5.346;2023-08-21T07:04:01;23.60;45.30
33903;DHT22;20194;50.950;5.346;2023-08-21T07:06:28;23.70;45.60
33903;DHT22;20194;50.950;5.346;2023-08-21T07:08:54;24.10;43.80
33903;DHT22;20194;50.950;5.346;2023-08-21T07:11:20;24.30;42.50
33903;DHT22;20194;50.950;5.346;2023-08-21T07:13:45;24.50;41.40
33903;DHT22;20194;50.950;5.346;2023-08-21T07:16:11;24.30;39.80
33903;DHT22;20194;50.950;5.346;2023-08-21T07:18:38;24.40;38.10
33903;DHT22;20194;50.950;5.346;2023-08-21T07:21:05;24.30;39.00
33903;DHT22;20194;50.950;5.346;2023-08-21T07:23:31;24.30;38.40
33903;DHT22;20194;50.950;5.346;2023-08-21T07:25:57;24.30;40.00
33903;DHT22;20194;50.950;5.346;2023-08-21T07:28:24;24.60;37.30
33903;DHT22;20194;50.950;5.346;2023-08-21T07:30:57;24.50;37.20
33903;DHT22;20194;50.950;5.346;2023-08-21T07:33:24;24.80;33.20
33903;DHT22;20194;50.950;5.346;2023-08-21T07:36:01;25.10;31.50
33903;DHT22;20194;50.950;5.346;2023-08-21T07:38:27;25.50;28.10
33903;DHT22;20194;50.950;5.346;2023-08-21T07:41:03;25.80;23.80
33903;DHT22;20194;50.950;5.346;2023-08-21T07:43:30;26.00;22.00
33903;DHT22;20194;50.950;5.346;2023-08-21T07:45:55;25.80;21.80
33903;DHT22;20194;50.950;5.346;2023-08-21T07:48:21;26.00;22.80
33903;DHT22;20194;50.950;5.346;2023-08-21T07:50:51;26.00;18.10
33903;DHT22;20194;50.950;5.346;2023-08-21T07:53:18;25.80;22.00
33903;DHT22;20194;50.950;5.346;2023-08-21T07:55:44;26.30;20.20
33903;DHT22;20194;50.950;5.346;2023-08-21T07:58:11;26.60;13.30
33903;DHT22;20194;50.950;5.346;2023-08-21T08:00:37;26.80;9.30
33903;DHT22;20194;50.950;5.346;2023-08-21T08:03:04;26.80;7.10
33903;DHT22;20194;50.950;5.346;2023-08-21T08:05:31;27.10;8.60
33903;DHT22;20194;50.950;5.346;2023-08-21T08:07:57;27.30;1.90
33903;DHT22;20194;50.950;5.346;2023-08-21T08:10:24;27.20;1.10
33903;DHT22;20194;50.950;5.346;2023-08-21T08:12:49;26.40;8.40
33903;DHT22;20194;50.950;5.346;2023-08-21T08:15:15;26.60;15.40
33903;DHT22;20194;50.950;5.346;2023-08-21T08:17:40;26.90;12.60
33903;DHT22;20194;50.950;5.346;2023-08-21T08:20:06;27.10;10.20
33903;DHT22;20194;50.950;5.346;2023-08-21T08:22:32;26.90;5.30
33903;DHT22;20194;50.950;5.346;2023-08-21T08:24:58;27.10;1.70
33903;DHT22;20194;50.950;5.346;2023-08-21T08:27:24;27.20;1.00
33903;DHT22;20194;50.950;5.346;2023-08-21T08:29:50;26.90;1.00
33903;DHT22;20194;50.950;5.346;2023-08-21T08:32:15;27.20;3.50
33903;DHT22;20194;50.950;5.346;2023-08-21T08:34:41;27.30;1.00
33903;DHT22;20194;50.950;5.346;2023-08-21T08:37:07;27.50;1.00
33903;DHT22;20194;50.950;5.346;2023-08-21T08:39:32;27.80;1.00
33903;DHT22;20194;50.950;5.346;2023-08-21T08:42:02;27.80;1.00
33903;DHT22;20194;50.950;5.346;2023-08-21T08:44:30;27.50;1.00
33903;DHT22;20194;50.950;5.346;2023-08-21T08:46:56;27.50;1.00
33903;DHT22;20194;50.950;5.346;2023-08-21T08:49:22;27.70;1.00
33903;DHT22;20194;50.950;5.346;2023-08-21T08:51:50;28.00;1.00
33903;DHT22;20194;50.950;5.346;2023-08-21T08:54:17;27.50;1.00
33903;DHT22;20194;50.950;5.346;2023-08-21T08:56:44;27.90;1.00
33903;DHT22;20194;50.950;5.346;2023-08-21T08:59:10;28.00;1.00
33903;DHT22;20194;50.950;5.346;2023-08-21T09:01:35;28.00;1.00
33903;DHT22;20194;50.950;5.346;2023-08-21T09:04:02;27.90;1.00
33903;DHT22;20194;50.950;5.346;2023-08-21T09:06:29;27.70;1.00
33903;DHT22;20194;50.950;5.346;2023-08-21T09:08:55;27.70;1.00
33903;DHT22;20194;50.950;5.346;2023-08-21T09:11:22;27.20;1.00
33903;DHT22;20194;50.950;5.346;2023-08-21T09:13:51;27.40;1.00
33903;DHT22;20194;50.950;5.346;2023-08-21T09:16:24;27.90;1.00
33903;DHT22;20194;50.950;5.346;2023-08-21T09:18:53;28.30;1.00
33903;DHT22;20194;50.950;5.346;2023-08-21T09:21:20;28.60;1.00
33903;DHT22;20194;50.950;5.346;2023-08-21T09:23:47;28.90;1.00
33903;DHT22;20194;50.950;5.346;2023-08-21T09:26:20;28.20;1.00
33903;DHT22;20194;50.950;5.346;2023-08-21T09:28:48;28.40;1.00
33903;DHT22;20194;50.950;5.346;2023-08-21T09:31:13;28.60;1.00
33903;DHT22;20194;50.950;5.346;2023-08-21T09:33:40;28.60;1.00
33903;DHT22;20194;50.950;5.346;2023-08-21T09:36:06;28.60;1.00
33903;DHT22;20194;50.950;5.346;2023-08-21T09:38:34;28.50;1.00
33903;DHT22;20194;50.950;5.346;2023-08-21T09:41:01;28.50;1.00
33903;DHT22;20194;50.950;5.346;2023-08-21T09:43:26;28.40;1.00
33903;DHT22;20194;50.950;5.346;2023-08-21T09:45:54;28.60;1.00
33903;DHT22;20194;50.950;5.346;2023-08-21T09:48:25;29.10;1.00
33903;DHT22;20194;50.950;5.346;2023-08-21T09:50:55;29.30;1.00
33903;DHT22;20194;50.950;5.346;2023-08-21T09:53:25;29.40;1.00
33903;DHT22;20194;50.950;5.346;2023-08-21T09:55:54;29.50;1.00
33903;DHT22;20194;50.950;5.346;2023-08-21T09:58:20;29.50;1.00
33903;DHT22;20194;50.950;5.346;2023-08-21T10:00:49;29.70;1.00
33903;DHT22;20194;50.950;5.346;2023-08-21T10:03:21;29.90;1.00
33903;DHT22;20194;50.950;5.346;2023-08-21T10:05:49;29.80;1.00
33903;DHT22;20194;50.950;5.346;2023-08-21T10:08:16;30.00;1.00
33903;DHT22;20194;50.950;5.346;2023-08-21T10:10:43;29.70;1.00
33903;DHT22;20194;50.950;5.346;2023-08-21T10:13:09;29.50;1.00
33903;DHT22;20194;50.950;5.346;2023-08-21T10:15:36;29.10;1.00
33903;DHT22;20194;50.950;5.346;2023-08-21T10:18:29;29.30;1.00
33903;DHT22;20194;50.950;5.346;2023-08-21T10:20:55;29.60;1.00
33903;DHT22;20194;50.950;5.346;2023-08-21T10:23:29;29.70;1.00
33903;DHT22;20194;50.950;5.346;2023-08-21T10:26:00;30.00;1.00
33903;DHT22;20194;50.950;5.346;2023-08-21T10:28:54;29.70;1.00
33903;DHT22;20194;50.950;5.346;2023-08-21T10:31:30;29.60;1.00
33903;DHT22;20194;50.950;5.346;2023-08-21T10:33:57;29.40;1.00
33903;DHT22;20194;50.950;5.346;2023-08-21T10:39:23;29.90;1.00
33903;DHT22;20194;50.950;5.346;2023-08-21T10:41:57;29.90;1.00
33903;DHT22;20194;50.950;5.346;2023-08-21T10:47:22;29.30;1.00
33903;DHT22;20194;50.950;5.346;2023-08-21T10:49:53;29.50;1.00
33903;DHT22;20194;50.950;5.346;2023-08-21T10:52:36;29.60;1.00
33903;DHT22;20194;50.950;5.346;2023-08-21T10:55:03;29.80;1.00
33903;DHT22;20194;50.950;5.346;2023-08-21T10:57:33;29.40;1.00
33903;DHT22;20194;50.950;5.346;2023-08-21T11:02:27;29.70;1.00
33903;DHT22;20194;50.950;5.346;2023-08-21T11:04:55;29.80;1.00
33903;DHT22;20194;50.950;5.346;2023-08-21T11:07:21;29.60;1.00
33903;DHT22;20194;50.950;5.346;2023-08-21T11:09:50;30.00;1.00
33903;DHT22;20194;50.950;5.346;2023-08-21T11:12:21;29.90;1.00
33903;DHT22;20194;50.950;5.346;2023-08-21T11:14:47;30.00;1.00
33903;DHT22;20194;50.950;5.346;2023-08-21T11:17:13;30.20;1.00
33903;DHT22;20194;50.950;5.346;2023-08-21T11:19:40;30.40;1.00
33903;DHT22;20194;50.950;5.346;2023-08-21T11:22:06;30.50;1.00
33903;DHT22;20194;50.950;5.346;2023-08-21T11:24:45;30.30;99.90
33903;DHT22;20194;50.950;5.346;2023-08-21T11:27:15;30.50;1.00
33903;DHT22;20194;50.950;5.346;2023-08-21T11:32:13;31.00;99.90
33903;DHT22;20194;50.950;5.346;2023-08-21T11:34:53;31.30;99.90
33903;DHT22;20194;50.950;5.346;2023-08-21T11:37:21;31.20;60.20
33903;DHT22;20194;50.950;5.346;2023-08-21T11:39:57;31.50;99.90
33903;DHT22;20194;50.950;5.346;2023-08-21T11:42:29;31.80;99.90
33903;DHT22;20194;50.950;5.346;2023-08-21T11:44:56;31.80;90.50
33903;DHT22;20194;50.950;5.346;2023-08-21T11:47:23;31.60;99.90
33903;DHT22;20194;50.950;5.346;2023-08-21T11:49:49;31.30;99.90
33903;DHT22;20194;50.950;5.346;2023-08-21T11:52:23;30.70;99.90
33903;DHT22;20194;50.950;5.346;2023-08-21T11:54:53;30.30;1.00
33903;DHT22;20194;50.950;5.346;2023-08-21T11:57:20;30.50;1.00
33903;DHT22;20194;50.950;5.346;2023-08-21T11:59:53;30.70;1.00
33903;DHT22;20194;50.950;5.346;2023-08-21T12:02:26;30.30;99.90
33903;DHT22;20194;50.950;5.346;2023-08-21T12:05:01;30.30;1.00
33903;DHT22;20194;50.950;5.346;2023-08-21T12:07:27;30.50;1.00
33903;DHT22;20194;50.950;5.346;2023-08-21T12:09:54;30.20;1.00
33903;DHT22;20194;50.950;5.346;2023-08-21T12:12:19;30.40;99.90
33903;DHT22;20194;50.950;5.346;2023-08-21T12:14:46;30.80;1.00
33903;DHT22;20194;50.950;5.346;2023-08-21T12:17:11;31.00;1.00
33903;DHT22;20194;50.950;5.346;2023-08-21T12:19:37;31.20;99.90
33903;DHT22;20194;50.950;5.346;2023-08-21T12:22:03;31.10;99.90
33903;DHT22;20194;50.950;5.346;2023-08-21T12:24:29;30.90;99.90
33903;DHT22;20194;50.950;5.346;2023-08-21T12:26:55;30.90;93.20
33903;DHT22;20194;50.950;5.346;2023-08-21T12:29:21;30.80;1.00
33903;DHT22;20194;50.950;5.346;2023-08-21T12:31:47;31.00;99.90
33903;DHT22;20194;50.950;5.346;2023-08-21T12:34:13;30.80;56.00
33903;DHT22;20194;50.950;5.346;2023-08-21T12:36:38;30.90;99.90
33903;DHT22;20194;50.950;5.346;2023-08-21T12:39:05;31.00;99.90
33903;DHT22;20194;50.950;5.346;2023-08-21T12:41:33;30.40;99.90
33903;DHT22;20194;50.950;5.346;2023-08-21T12:44:01;30.00;99.90
33903;DHT22;20194;50.950;5.346;2023-08-21T12:46:29;29.30;1.00
33903;DHT22;20194;50.950;5.346;2023-08-21T12:48:56;29.00;1.00
33903;DHT22;20194;50.950;5.346;2023-08-21T12:51:22;28.70;1.00
33903;DHT22;20194;50.950;5.346;2023-08-21T12:53:47;28.70;1.00
33903;DHT22;20194;50.950;5.346;2023-08-21T12:56:13;29.10;1.00
33903;DHT22;20194;50.950;5.346;2023-08-21T12:58:39;29.50;1.00
33903;DHT22;20194;50.950;5.346;2023-08-21T13:01:05;29.80;1.00
33903;DHT22;20194;50.950;5.346;2023-08-21T13:03:32;30.00;1.00
33903;DHT22;20194;50.950;5.346;2023-08-21T13:05:58;29.90;1.00
33903;DHT22;20194;50.950;5.346;2023-08-21T13:08:24;30.00;1.00
33903;DHT22;20194;50.950;5.346;2023-08-21T13:10:50;30.20;1.00
33903;DHT22;20194;50.950;5.346;2023-08-21T13:13:15;30.20;1.00
33903;DHT22;20194;50.950;5.346;2023-08-21T13:15:41;30.20;99.90
33903;DHT22;20194;50.950;5.346;2023-08-21T13:18:10;29.80;1.00
33903;DHT22;20194;50.950;5.346;2023-08-21T13:20:36;29.40;1.00
33903;DHT22;20194;50.950;5.346;2023-08-21T13:23:03;29.70;1.00
33903;DHT22;20194;50.950;5.346;2023-08-21T13:25:28;30.00;1.00
33903;DHT22;20194;50.950;5.346;2023-08-21T13:27:56;30.00;1.00
33903;DHT22;20194;50.950;5.346;2023-08-21T13:30:21;30.10;1.00
33903;DHT22;20194;50.950;5.346;2023-08-21T13:32:48;30.20;99.90
33903;DHT22;20194;50.950;5.346;2023-08-21T13:35:13;29.70;99.90
33903;DHT22;20194;50.950;5.346;2023-08-21T13:37:39;29.80;1.00
33903;DHT22;20194;50.950;5.346;2023-08-21T13:40:06;29.60;99.90
33903;DHT22;20194;50.950;5.346;2023-08-21T13:42:43;29.80;1.00
33903;DHT22;20194;50.950;5.346;2023-08-21T13:45:10;30.10;99.90
33903;DHT22;20194;50.950;5.346;2023-08-21T13:47:40;29.90;99.90
33903;DHT22;20194;50.950;5.346;2023-08-21T13:50:07;30.20;99.90
33903;DHT22;20194;50.950;5.346;2023-08-21T13:52:33;29.60;99.90
33903;DHT22;20194;50.950;5.346;2023-08-21T13:55:00;29.60;1.00
33903;DHT22;20194;50.950;5.346;2023-08-21T13:57:26;29.60;99.90
33903;DHT22;20194;50.950;5.346;2023-08-21T13:59:52;29.60;99.90
33903;DHT22;20194;50.950;5.346;2023-08-21T14:02:18;29.50;1.00
33903;DHT22;20194;50.950;5.346;2023-08-21T14:04:45;29.40;1.00
33903;DHT22;20194;50.950;5.346;2023-08-21T14:07:11;29.50;1.00
33903;DHT22;20194;50.950;5.346;2023-08-21T14:09:38;29.40;99.90
33903;DHT22;20194;50.950;5.346;2023-08-21T14:12:04;29.30;99.90
33903;DHT22;20194;50.950;5.346;2023-08-21T14:14:30;29.40;99.90
33903;DHT22;20194;50.950;5.346;2023-08-21T14:16:55;29.50;1.00
33903;DHT22;20194;50.950;5.346;2023-08-21T14:19:21;29.50;1.00
33903;DHT22;20194;50.950;5.346;2023-08-21T14:21:47;29.40;1.00
33903;DHT22;20194;50.950;5.346;2023-08-21T14:24:12;29.40;1.00
33903;DHT22;20194;50.950;5.346;2023-08-21T14:26:38;29.40;1.00
33903;DHT22;20194;50.950;5.346;2023-08-21T14:29:05;29.50;1.00
33903;DHT22;20194;50.950;5.346;2023-08-21T14:31:31;29.00;1.00
33903;DHT22;20194;50.950;5.346;2023-08-21T14:33:57;28.50;1.00
33903;DHT22;20194;50.950;5.346;2023-08-21T14:36:23;28.70;1.00
33903;DHT22;20194;50.950;5.346;2023-08-21T14:38:49;28.60;1.00
33903;DHT22;20194;50.950;5.346;2023-08-21T14:41:16;28.90;1.00
33903;DHT22;20194;50.950;5.346;2023-08-21T14:43:43;28.90;1.00
33903;DHT22;20194;50.950;5.346;2023-08-21T14:46:08;28.80;1.00
33903;DHT22;20194;50.950;5.346;2023-08-21T14:48:35;28.80;1.00
33903;DHT22;20194;50.950;5.346;2023-08-21T14:51:00;28.90;1.00
33903;DHT22;20194;50.950;5.346;2023-08-21T14:53:26;29.00;1.00
33903;DHT22;20194;50.950;5.346;2023-08-21T14:55:52;29.10;1.00
33903;DHT22;20194;50.950;5.346;2023-08-21T14:58:17;29.20;1.00
33903;DHT22;20194;50.950;5.346;2023-08-21T15:00:43;28.80;1.00
33903;DHT22;20194;50.950;5.346;2023-08-21T15:03:09;28.90;1.00
33903;DHT22;20194;50.950;5.346;2023-08-21T15:05:34;29.00;1.00
33903;DHT22;20194;50.950;5.346;2023-08-21T15:08:00;28.60;1.00
33903;DHT22;20194;50.950;5.346;2023-08-21T15:10:27;28.70;1.00
33903;DHT22;20194;50.950;5.346;2023-08-21T15:12:53;28.90;1.00
33903;DHT22;20194;50.950;5.346;2023-08-21T15:15:19;28.80;1.00
33903;DHT22;20194;50.950;5.346;2023-08-21T15:17:46;28.60;1.00
33903;DHT22;20194;50.950;5.346;2023-08-21T15:20:13;28.30;1.00
33903;DHT22;20194;50.950;5.346;2023-08-21T15:22:41;28.20;1.00
33903;DHT22;20194;50.950;5.346;2023-08-21T15:25:08;28.40;1.00
33903;DHT22;20194;50.950;5.346;2023-08-21T15:27:35;28.50;1.00
33903;DHT22;20194;50.950;5.346;2023-08-21T15:30:01;28.30;1.00
33903;DHT22;20194;50.950;5.346;2023-08-21T15:32:27;28.40;1.00
33903;DHT22;20194;50.950;5.346;2023-08-21T15:34:52;28.70;1.00
33903;DHT22;20194;50.950;5.346;2023-08-21T15:37:18;28.90;1.00
33903;DHT22;20194;50.950;5.346;2023-08-21T15:39:44;28.90;1.00
33903;DHT22;20194;50.950;5.346;2023-08-21T15:42:09;29.00;1.00
33903;DHT22;20194;50.950;5.346;2023-08-21T15:44:35;29.00;1.00
33903;DHT22;20194;50.950;5.346;2023-08-21T15:47:01;29.00;99.90
33903;DHT22;20194;50.950;5.346;2023-08-21T15:49:26;29.00;1.00